sensor_id;sensor_type;location;lat;lon;timestamp;temperature;humidity
1614;DHT22;800;48.824;9.346;2023-05-18T00:01:01;13.90;51.90
1614;DHT22;800;48.824;9.346;2023-05-18T00:03:28;13.90;51.90
1614;DHT22;800;48.824;9.346;2023-05-18T00:05:54;13.90;51.90
1614;DHT22;800;48.824;9.346;2023-05-18T00:08:22;13.90;52.00
1614;DHT22;800;48.824;9.346;2023-05-18T00:10:47;13.90;52.00
1614;DHT22;800;48.824;9.346;2023-05-18T00:13:13;13.60;52.30
1614;DHT22;800;48.824;9.346;2023-05-18T00:15:39;13.40;52.70
1614;DHT22;800;48.824;9.346;2023-05-18T00:18:04;13.40;53.10
1614;DHT22;800;48.824;9.346;2023-05-18T00:20:31;13.30;53.10
1614;DHT22;800;48.824;9.346;2023-05-18T00:22:56;13.20;53.10
1614;DHT22;800;48.824;9.346;2023-05-18T00:25:22;13.20;53.60
1614;DHT22;800;48.824;9.346;2023-05-18T00:27:48;13.20;53.40
1614;DHT22;800;48.824;9.346;2023-05-18T00:30:14;13.20;53.40
1614;DHT22;800;48.824;9.346;2023-05-18T00:32:40;13.10;53.80
1614;DHT22;800;48.824;9.346;2023-05-18T00:35:06;13.00;53.90
1614;DHT22;800;48.824;9.346;2023-05-18T00:37:31;12.60;54.40
1614;DHT22;800;48.824;9.346;2023-05-18T00:39:57;12.60;54.70
1614;DHT22;800;48.824;9.346;2023-05-18T00:42:23;12.60;54.50
1614;DHT22;800;48.824;9.346;2023-05-18T00:44:48;12.70;54.30
1614;DHT22;800;48.824;9.346;2023-05-18T00:47:14;12.70;53.90
1614;DHT22;800;48.824;9.346;2023-05-18T00:49:40;12.70;54.00
1614;DHT22;800;48.824;9.346;2023-05-18T00:52:06;12.80;53.80
1614;DHT22;800;48.824;9.346;2023-05-18T00:54:32;12.80;53.80
1614;DHT22;800;48.824;9.346;2023-05-18T00:56:58;12.70;53.90
1614;DHT22;800;48.824;9.346;2023-05-18T00:59:27;12.50;54.30
1614;DHT22;800;48.824;9.346;2023-05-18T01:01:54;12.50;54.30
1614;DHT22;800;48.824;9.346;2023-05-18T01:04:20;12.60;54.10
1614;DHT22;800;48.824;9.346;2023-05-18T01:06:48;12.60;53.90
1614;DHT22;800;48.824;9.346;2023-05-18T01:09:15;12.70;53.80
1614;DHT22;800;48.824;9.346;2023-05-18T01:11:56;12.70;53.90
1614;DHT22;800;48.824;9.346;2023-05-18T01:17:02;12.20;55.30
1614;DHT22;800;48.824;9.346;2023-05-18T01:23:05;12.40;54.90
1614;DHT22;800;48.824;9.346;2023-05-18T01:25:31;12.50;54.60
1614;DHT22;800;48.824;9.346;2023-05-18T01:28:02;12.50;54.30
1614;DHT22;800;48.824;9.346;2023-05-18T01:30:37;12.60;54.20
1614;DHT22;800;48.824;9.346;2023-05-18T01:33:08;12.60;54.10
1614;DHT22;800;48.824;9.346;2023-05-18T01:35:35;12.50;53.80
1614;DHT22;800;48.824;9.346;2023-05-18T01:38:01;12.50;53.50
1614;DHT22;800;48.824;9.346;2023-05-18T01:40:38;12.50;53.70
1614;DHT22;800;48.824;9.346;2023-05-18T01:43:10;12.50;53.90
1614;DHT22;800;48.824;9.346;2023-05-18T01:45:40;12.50;54.00
1614;DHT22;800;48.824;9.346;2023-05-18T01:48:09;12.50;53.90
1614;DHT22;800;48.824;9.346;2023-05-18T01:50:39;12.40;53.90
1614;DHT22;800;48.824;9.346;2023-05-18T01:53:17;12.40;53.90
1614;DHT22;800;48.824;9.346;2023-05-18T01:55:44;12.50;54.00
1614;DHT22;800;48.824;9.346;2023-05-18T01:58:11;12.40;53.90
1614;DHT22;800;48.824;9.346;2023-05-18T02:00:37;12.40;54.00
1614;DHT22;800;48.824;9.346;2023-05-18T02:03:04;12.40;54.00
1614;DHT22;800;48.824;9.346;2023-05-18T02:05:30;12.40;53.90
1614;DHT22;800;48.824;9.346;2023-05-18T02:07:56;12.40;53.80
1614;DHT22;800;48.824;9.346;2023-05-18T02:10:22;12.40;53.70
1614;DHT22;800;48.824;9.346;2023-05-18T02:12:48;12.40;53.70
1614;DHT22;800;48.824;9.346;2023-05-18T02:15:17;12.40;53.70
1614;DHT22;800;48.824;9.346;2023-05-18T02:17:42;12.30;53.50
1614;DHT22;800;48.824;9.346;2023-05-18T02:20:08;12.30;53.50
1614;DHT22;800;48.824;9.346;2023-05-18T02:22:34;12.30;53.50
1614;DHT22;800;48.824;9.346;2023-05-18T02:25:01;12.20;53.40
1614;DHT22;800;48.824;9.346;2023-05-18T02:27:26;12.20;53.20
1614;DHT22;800;48.824;9.346;2023-05-18T02:29:52;12.20;53.20
1614;DHT22;800;48.824;9.346;2023-05-18T02:32:18;12.10;53.00
1614;DHT22;800;48.824;9.346;2023-05-18T02:34:44;12.10;53.10
1614;DHT22;800;48.824;9.346;2023-05-18T02:37:10;12.00;52.90
1614;DHT22;800;48.824;9.346;2023-05-18T02:39:38;12.00;53.10
1614;DHT22;800;48.824;9.346;2023-05-18T02:42:04;11.90;53.20
1614;DHT22;800;48.824;9.346;2023-05-18T02:44:30;11.90;53.40
1614;DHT22;800;48.824;9.346;2023-05-18T02:46:56;11.90;53.50
1614;DHT22;800;48.824;9.346;2023-05-18T02:49:21;11.80;53.50
1614;DHT22;800;48.824;9.346;2023-05-18T02:51:47;11.80;53.70
1614;DHT22;800;48.824;9.346;2023-05-18T02:54:12;11.80;53.70
1614;DHT22;800;48.824;9.346;2023-05-18T02:56:38;11.80;53.70
1614;DHT22;800;48.824;9.346;2023-05-18T02:59:05;11.70;53.60
1614;DHT22;800;48.824;9.346;2023-05-18T03:01:31;11.70;53.70
1614;DHT22;800;48.824;9.346;2023-05-18T03:04:01;11.70;53.80
1614;DHT22;800;48.824;9.346;2023-05-18T03:06:27;11.60;53.80
1614;DHT22;800;48.824;9.346;2023-05-18T03:08:55;11.60;54.40
1614;DHT22;800;48.824;9.346;2023-05-18T03:11:22;11.60;53.90
1614;DHT22;800;48.824;9.346;2023-05-18T03:13:47;11.60;53.90
1614;DHT22;800;48.824;9.346;2023-05-18T03:16:13;11.50;53.60
1614;DHT22;800;48.824;9.346;2023-05-18T03:18:40;11.50;54.00
1614;DHT22;800;48.824;9.346;2023-05-18T03:21:05;11.50;54.30
1614;DHT22;800;48.824;9.346;2023-05-18T03:23:32;11.50;54.40
1614;DHT22;800;48.824;9.346;2023-05-18T03:25:58;11.50;54.30
1614;DHT22;800;48.824;9.346;2023-05-18T03:28:27;11.50;54.30
1614;DHT22;800;48.824;9.346;2023-05-18T03:30:53;11.50;54.20
1614;DHT22;800;48.824;9.346;2023-05-18T03:33:18;11.60;54.30
1614;DHT22;800;48.824;9.346;2023-05-18T03:35:44;11.60;54.20
1614;DHT22;800;48.824;9.346;2023-05-18T03:38:10;11.60;54.00
1614;DHT22;800;48.824;9.346;2023-05-18T03:40:36;11.50;53.80
1614;DHT22;800;48.824;9.346;2023-05-18T03:43:01;11.50;54.00
1614;DHT22;800;48.824;9.346;2023-05-18T03:45:27;11.40;54.10
1614;DHT22;800;48.824;9.346;2023-05-18T03:47:53;11.40;54.20
1614;DHT22;800;48.824;9.346;2023-05-18T03:50:18;11.40;54.10
1614;DHT22;800;48.824;9.346;2023-05-18T03:52:44;11.40;54.10
1614;DHT22;800;48.824;9.346;2023-05-18T03:55:10;11.40;54.00
1614;DHT22;800;48.824;9.346;2023-05-18T03:57:36;11.30;54.00
1614;DHT22;800;48.824;9.346;2023-05-18T04:00:06;11.20;53.80
1614;DHT22;800;48.824;9.346;2023-05-18T04:02:38;11.20;53.70
1614;DHT22;800;48.824;9.346;2023-05-18T04:05:04;11.00;54.00
1614;DHT22;800;48.824;9.346;2023-05-18T04:07:30;11.00;54.10
1614;DHT22;800;48.824;9.346;2023-05-18T04:09:55;11.10;54.00
1614;DHT22;800;48.824;9.346;2023-05-18T04:12:21;11.10;53.80
1614;DHT22;800;48.824;9.346;2023-05-18T04:14:47;11.10;53.80
1614;DHT22;800;48.824;9.346;2023-05-18T04:17:17;11.10;53.70
1614;DHT22;800;48.824;9.346;2023-05-18T04:19:43;11.10;53.60
1614;DHT22;800;48.824;9.346;2023-05-18T04:22:08;11.10;53.70
1614;DHT22;800;48.824;9.346;2023-05-18T04:24:34;11.10;53.80
1614;DHT22;800;48.824;9.346;2023-05-18T04:27:00;11.10;53.70
1614;DHT22;800;48.824;9.346;2023-05-18T04:29:27;11.20;53.60
1614;DHT22;800;48.824;9.346;2023-05-18T04:31:54;11.20;53.60
1614;DHT22;800;48.824;9.346;2023-05-18T04:34:29;11.20;53.80
1614;DHT22;800;48.824;9.346;2023-05-18T04:36:56;11.20;53.90
1614;DHT22;800;48.824;9.346;2023-05-18T04:39:24;11.20;54.00
1614;DHT22;800;48.824;9.346;2023-05-18T04:41:52;11.20;54.20
1614;DHT22;800;48.824;9.346;2023-05-18T04:44:27;11.20;54.40
1614;DHT22;800;48.824;9.346;2023-05-18T04:46:56;11.20;54.70
1614;DHT22;800;48.824;9.346;2023-05-18T04:49:22;11.20;55.00
1614;DHT22;800;48.824;9.346;2023-05-18T04:51:56;11.30;55.10
1614;DHT22;800;48.824;9.346;2023-05-18T04:54:27;11.30;55.10
1614;DHT22;800;48.824;9.346;2023-05-18T04:56:55;11.40;55.10
1614;DHT22;800;48.824;9.346;2023-05-18T04:59:22;11.40;55.70
1614;DHT22;800;48.824;9.346;2023-05-18T05:01:53;11.50;55.30
1614;DHT22;800;48.824;9.346;2023-05-18T05:04:20;11.50;55.40
1614;DHT22;800;48.824;9.346;2023-05-18T05:06:46;11.60;55.60
1614;DHT22;800;48.824;9.346;2023-05-18T05:09:11;11.70;55.60
1614;DHT22;800;48.824;9.346;2023-05-18T05:11:40;11.80;55.60
1614;DHT22;800;48.824;9.346;2023-05-18T05:14:07;11.80;55.80
1614;DHT22;800;48.824;9.346;2023-05-18T05:16:33;11.90;55.90
1614;DHT22;800;48.824;9.346;2023-05-18T05:18:59;11.90;55.70
1614;DHT22;800;48.824;9.346;2023-05-18T05:21:25;12.00;55.60
1614;DHT22;800;48.824;9.346;2023-05-18T05:23:51;12.00;55.60
1614;DHT22;800;48.824;9.346;2023-05-18T05:26:17;12.10;55.70
1614;DHT22;800;48.824;9.346;2023-05-18T05:28:42;12.20;55.70
1614;DHT22;800;48.824;9.346;2023-05-18T05:31:08;12.30;55.60
1614;DHT22;800;48.824;9.346;2023-05-18T05:33:34;12.30;55.20
1614;DHT22;800;48.824;9.346;2023-05-18T05:35:59;12.30;55.50
1614;DHT22;800;48.824;9.346;2023-05-18T05:38:25;12.30;55.70
1614;DHT22;800;48.824;9.346;2023-05-18T05:40:51;12.40;55.70
1614;DHT22;800;48.824;9.346;2023-05-18T05:43:16;12.50;55.60
1614;DHT22;800;48.824;9.346;2023-05-18T05:45:42;12.60;56.10
1614;DHT22;800;48.824;9.346;2023-05-18T05:48:08;12.80;56.60
1614;DHT22;800;48.824;9.346;2023-05-18T05:50:34;13.10;57.10
1614;DHT22;800;48.824;9.346;2023-05-18T05:52:59;13.10;56.10
1614;DHT22;800;48.824;9.346;2023-05-18T05:55:25;13.40;56.50
1614;DHT22;800;48.824;9.346;2023-05-18T05:57:51;13.60;55.70
1614;DHT22;800;48.824;9.346;2023-05-18T06:00:17;13.80;54.40
1614;DHT22;800;48.824;9.346;2023-05-18T06:02:43;13.80;52.70
1614;DHT22;800;48.824;9.346;2023-05-18T06:05:08;13.90;52.10
1614;DHT22;800;48.824;9.346;2023-05-18T06:07:34;14.10;52.70
1614;DHT22;800;48.824;9.346;2023-05-18T06:10:00;14.40;53.00
1614;DHT22;800;48.824;9.346;2023-05-18T06:12:26;14.50;52.70
1614;DHT22;800;48.824;9.346;2023-05-18T06:14:52;14.70;52.10
1614;DHT22;800;48.824;9.346;2023-05-18T06:17:22;14.90;51.60
1614;DHT22;800;48.824;9.346;2023-05-18T06:19:47;15.00;51.30
1614;DHT22;800;48.824;9.346;2023-05-18T06:22:13;15.10;50.90
1614;DHT22;800;48.824;9.346;2023-05-18T06:24:38;15.20;50.80
1614;DHT22;800;48.824;9.346;2023-05-18T06:27:04;15.40;50.10
1614;DHT22;800;48.824;9.346;2023-05-18T06:29:30;15.50;49.20
1614;DHT22;800;48.824;9.346;2023-05-18T06:31:56;15.60;48.00
1614;DHT22;800;48.824;9.346;2023-05-18T06:34:22;15.70;48.00
1614;DHT22;800;48.824;9.346;2023-05-18T06:36:47;15.80;47.60
1614;DHT22;800;48.824;9.346;2023-05-18T06:39:13;15.90;47.40
1614;DHT22;800;48.824;9.346;2023-05-18T06:41:38;16.00;47.40
1614;DHT22;800;48.824;9.346;2023-05-18T06:44:04;16.20;47.20
1614;DHT22;800;48.824;9.346;2023-05-18T06:46:30;16.30;47.40
1614;DHT22;800;48.824;9.346;2023-05-18T06:48:55;16.40;46.90
1614;DHT22;800;48.824;9.346;2023-05-18T06:51:21;16.50;46.60
1614;DHT22;800;48.824;9.346;2023-05-18T06:53:47;16.50;46.20
1614;DHT22;800;48.824;9.346;2023-05-18T06:56:12;16.60;46.00
1614;DHT22;800;48.824;9.346;2023-05-18T06:58:40;16.80;46.30
1614;DHT22;800;48.824;9.346;2023-05-18T07:01:05;16.90;45.90
1614;DHT22;800;48.824;9.346;2023-05-18T07:03:31;17.00;45.60
1614;DHT22;800;48.824;9.346;2023-05-18T07:05:57;17.10;45.70
1614;DHT22;800;48.824;9.346;2023-05-18T07:08:23;17.20;46.00
1614;DHT22;800;48.824;9.346;2023-05-18T07:10:50;17.30;45.80
1614;DHT22;800;48.824;9.346;2023-05-18T07:13:15;17.60;45.00
1614;DHT22;800;48.824;9.346;2023-05-18T07:15:47;17.70;45.10
1614;DHT22;800;48.824;9.346;2023-05-18T07:18:12;17.80;44.60
1614;DHT22;800;48.824;9.346;2023-05-18T07:20:38;17.90;44.30
1614;DHT22;800;48.824;9.346;2023-05-18T07:23:04;18.00;44.30
1614;DHT22;800;48.824;9.346;2023-05-18T07:25:29;18.00;44.10
1614;DHT22;800;48.824;9.346;2023-05-18T07:27:55;18.00;44.30
1614;DHT22;800;48.824;9.346;2023-05-18T07:30:21;18.10;44.40
1614;DHT22;800;48.824;9.346;2023-05-18T07:32:47;18.20;44.10
1614;DHT22;800;48.824;9.346;2023-05-18T07:35:13;18.40;44.60
1614;DHT22;800;48.824;9.346;2023-05-18T07:37:41;18.40;43.70
1614;DHT22;800;48.824;9.346;2023-05-18T07:40:07;18.60;43.10
1614;DHT22;800;48.824;9.346;2023-05-18T07:42:34;18.80;43.50
1614;DHT22;800;48.824;9.346;2023-05-18T07:45:00;19.00;43.50
1614;DHT22;800;48.824;9.346;2023-05-18T07:47:25;19.20;42.90
1614;DHT22;800;48.824;9.346;2023-05-18T07:49:51;19.40;42.40
1614;DHT22;800;48.824;9.346;2023-05-18T07:52:17;19.50;42.30
1614;DHT22;800;48.824;9.346;2023-05-18T07:54:42;19.40;42.40
1614;DHT22;800;48.824;9.346;2023-05-18T07:57:08;19.20;40.70
1614;DHT22;800;48.824;9.346;2023-05-18T07:59:34;18.90;41.90
1614;DHT22;800;48.824;9.346;2023-05-18T08:01:59;18.40;41.30
1614;DHT22;800;48.824;9.346;2023-05-18T08:04:26;18.20;42.30
1614;DHT22;800;48.824;9.346;2023-05-18T08:06:52;18.30;41.50
1614;DHT22;800;48.824;9.346;2023-05-18T08:09:19;18.60;42.00
1614;DHT22;800;48.824;9.346;2023-05-18T08:11:46;18.60;40.80
1614;DHT22;800;48.824;9.346;2023-05-18T08:14:12;18.70;40.70
1614;DHT22;800;48.824;9.346;2023-05-18T08:16:37;18.80;40.10
1614;DHT22;800;48.824;9.346;2023-05-18T08:19:04;19.10;39.80
1614;DHT22;800;48.824;9.346;2023-05-18T08:21:29;19.30;39.70
1614;DHT22;800;48.824;9.346;2023-05-18T08:23:55;19.50;39.60
1614;DHT22;800;48.824;9.346;2023-05-18T08:26:21;19.40;39.00
1614;DHT22;800;48.824;9.346;2023-05-18T08:28:47;19.50;39.10
1614;DHT22;800;48.824;9.346;2023-05-18T08:31:13;19.30;38.80
1614;DHT22;800;48.824;9.346;2023-05-18T08:33:40;19.10;39.80
1614;DHT22;800;48.824;9.346;2023-05-18T08:36:07;19.20;39.50
1614;DHT22;800;48.824;9.346;2023-05-18T08:38:33;19.50;38.80
1614;DHT22;800;48.824;9.346;2023-05-18T08:41:28;19.90;39.10
1614;DHT22;800;48.824;9.346;2023-05-18T08:44:04;20.30;38.60
1614;DHT22;800;48.824;9.346;2023-05-18T08:46:32;20.60;37.20
1614;DHT22;800;48.824;9.346;2023-05-18T08:49:01;19.90;37.70
1614;DHT22;800;48.824;9.346;2023-05-18T08:51:33;20.20;38.40
1614;DHT22;800;48.824;9.346;2023-05-18T08:53:59;20.50;37.70
1614;DHT22;800;48.824;9.346;2023-05-18T08:56:25;20.30;36.70
1614;DHT22;800;48.824;9.346;2023-05-18T08:58:55;20.40;37.20
1614;DHT22;800;48.824;9.346;2023-05-18T09:01:23;21.00;38.80
1614;DHT22;800;48.824;9.346;2023-05-18T09:03:52;21.50;37.80
1614;DHT22;800;48.824;9.346;2023-05-18T09:06:22;21.30;35.90
1614;DHT22;800;48.824;9.346;2023-05-18T09:08:54;21.30;36.30
1614;DHT22;800;48.824;9.346;2023-05-18T09:11:21;21.60;36.90
1614;DHT22;800;48.824;9.346;2023-05-18T09:13:49;21.90;35.30
1614;DHT22;800;48.824;9.346;2023-05-18T09:16:18;22.00;35.90
1614;DHT22;800;48.824;9.346;2023-05-18T09:18:43;22.10;34.70
1614;DHT22;800;48.824;9.346;2023-05-18T09:21:09;22.10;34.70
1614;DHT22;800;48.824;9.346;2023-05-18T09:23:40;21.90;34.50
1614;DHT22;800;48.824;9.346;2023-05-18T09:26:06;22.20;35.60
1614;DHT22;800;48.824;9.346;2023-05-18T09:28:36;22.10;33.80
1614;DHT22;800;48.824;9.346;2023-05-18T09:31:06;22.20;33.70
1614;DHT22;800;48.824;9.346;2023-05-18T09:33:34;21.90;34.50
1614;DHT22;800;48.824;9.346;2023-05-18T09:36:01;22.00;34.30
1614;DHT22;800;48.824;9.346;2023-05-18T09:38:28;21.90;33.40
1614;DHT22;800;48.824;9.346;2023-05-18T09:40:54;21.80;33.00
1614;DHT22;800;48.824;9.346;2023-05-18T09:43:20;22.00;34.10
1614;DHT22;800;48.824;9.346;2023-05-18T09:45:47;22.30;34.70
1614;DHT22;800;48.824;9.346;2023-05-18T09:48:14;22.70;33.90
1614;DHT22;800;48.824;9.346;2023-05-18T09:50:42;23.00;33.50
1614;DHT22;800;48.824;9.346;2023-05-18T09:53:09;22.80;31.80
1614;DHT22;800;48.824;9.346;2023-05-18T09:55:44;22.60;32.90
1614;DHT22;800;48.824;9.346;2023-05-18T09:58:10;22.90;33.00
1614;DHT22;800;48.824;9.346;2023-05-18T10:01:02;23.00;32.50
1614;DHT22;800;48.824;9.346;2023-05-18T10:03:35;23.00;32.40
1614;DHT22;800;48.824;9.346;2023-05-18T10:06:09;23.10;31.80
1614;DHT22;800;48.824;9.346;2023-05-18T10:08:37;23.30;31.50
1614;DHT22;800;48.824;9.346;2023-05-18T10:11:03;23.30;31.40
1614;DHT22;800;48.824;9.346;2023-05-18T10:13:31;23.30;31.30
1614;DHT22;800;48.824;9.346;2023-05-18T10:15:59;23.20;32.20
1614;DHT22;800;48.824;9.346;2023-05-18T10:18:29;23.30;32.00
1614;DHT22;800;48.824;9.346;2023-05-18T10:20:57;23.30;31.80
1614;DHT22;800;48.824;9.346;2023-05-18T10:23:24;23.10;31.30
1614;DHT22;800;48.824;9.346;2023-05-18T10:25:51;23.40;32.60
1614;DHT22;800;48.824;9.346;2023-05-18T10:28:29;23.50;30.70
1614;DHT22;800;48.824;9.346;2023-05-18T10:30:56;23.50;31.60
1614;DHT22;800;48.824;9.346;2023-05-18T10:33:26;23.80;33.70
1614;DHT22;800;48.824;9.346;2023-05-18T10:35:53;24.10;32.80
1614;DHT22;800;48.824;9.346;2023-05-18T10:38:24;24.00;29.90
1614;DHT22;800;48.824;9.346;2023-05-18T10:40:57;24.10;30.40
1614;DHT22;800;48.824;9.346;2023-05-18T10:43:25;24.00;29.90
1614;DHT22;800;48.824;9.346;2023-05-18T10:45:57;24.00;30.00
1614;DHT22;800;48.824;9.346;2023-05-18T10:48:24;24.30;30.50
1614;DHT22;800;48.824;9.346;2023-05-18T10:50:54;24.50;31.40
1614;DHT22;800;48.824;9.346;2023-05-18T10:53:23;24.80;30.50
1614;DHT22;800;48.824;9.346;2023-05-18T10:55:50;24.80;29.90
1614;DHT22;800;48.824;9.346;2023-05-18T10:58:20;24.70;30.40
1614;DHT22;800;48.824;9.346;2023-05-18T11:00:49;24.80;30.00
1614;DHT22;800;48.824;9.346;2023-05-18T11:03:16;25.30;30.20
1614;DHT22;800;48.824;9.346;2023-05-18T11:05:43;25.50;29.00
1614;DHT22;800;48.824;9.346;2023-05-18T11:08:12;25.70;29.40
1614;DHT22;800;48.824;9.346;2023-05-18T11:11:01;25.60;29.20
1614;DHT22;800;48.824;9.346;2023-05-18T11:13:31;25.60;28.80
1614;DHT22;800;48.824;9.346;2023-05-18T11:18:48;26.10;28.40
1614;DHT22;800;48.824;9.346;2023-05-18T11:21:48;26.10;30.00
1614;DHT22;800;48.824;9.346;2023-05-18T11:24:29;25.80;29.20
1614;DHT22;800;48.824;9.346;2023-05-18T11:27:15;26.00;28.40
1614;DHT22;800;48.824;9.346;2023-05-18T11:29:42;26.10;28.70
1614;DHT22;800;48.824;9.346;2023-05-18T11:32:28;26.10;29.80
1614;DHT22;800;48.824;9.346;2023-05-18T11:34:58;25.70;27.60
1614;DHT22;800;48.824;9.346;2023-05-18T11:40:10;25.00;28.70
1614;DHT22;800;48.824;9.346;2023-05-18T11:42:38;25.00;29.50
1614;DHT22;800;48.824;9.346;2023-05-18T11:45:07;25.00;29.70
1614;DHT22;800;48.824;9.346;2023-05-18T11:47:34;24.90;28.80
1614;DHT22;800;48.824;9.346;2023-05-18T11:50:01;25.10;28.80
1614;DHT22;800;48.824;9.346;2023-05-18T11:52:27;24.90;29.20
1614;DHT22;800;48.824;9.346;2023-05-18T11:54:55;24.80;29.40
1614;DHT22;800;48.824;9.346;2023-05-18T12:00:00;25.40;29.20
1614;DHT22;800;48.824;9.346;2023-05-18T12:02:27;25.60;29.70
1614;DHT22;800;48.824;9.346;2023-05-18T12:04:57;25.60;28.90
1614;DHT22;800;48.824;9.346;2023-05-18T12:07:25;25.60;28.90
1614;DHT22;800;48.824;9.346;2023-05-18T12:09:51;25.70;29.10
1614;DHT22;800;48.824;9.346;2023-05-18T12:12:17;25.90;28.90
1614;DHT22;800;48.824;9.346;2023-05-18T12:14:53;26.20;28.00
1614;DHT22;800;48.824;9.346;2023-05-18T12:17:20;26.20;27.60
1614;DHT22;800;48.824;9.346;2023-05-18T12:19:47;26.30;28.10
1614;DHT22;800;48.824;9.346;2023-05-18T12:22:13;26.40;28.60
1614;DHT22;800;48.824;9.346;2023-05-18T12:24:41;26.50;30.00
1614;DHT22;800;48.824;9.346;2023-05-18T12:27:08;26.60;29.10
1614;DHT22;800;48.824;9.346;2023-05-18T12:29:41;26.60;28.50
1614;DHT22;800;48.824;9.346;2023-05-18T12:32:08;25.90;28.20
1614;DHT22;800;48.824;9.346;2023-05-18T12:34:35;25.80;28.70
1614;DHT22;800;48.824;9.346;2023-05-18T12:37:01;26.10;28.50
1614;DHT22;800;48.824;9.346;2023-05-18T12:39:27;26.40;27.80
1614;DHT22;800;48.824;9.346;2023-05-18T12:41:53;26.20;28.10
1614;DHT22;800;48.824;9.346;2023-05-18T12:44:20;26.10;28.10
1614;DHT22;800;48.824;9.346;2023-05-18T12:46:46;25.90;28.40
1614;DHT22;800;48.824;9.346;2023-05-18T12:49:12;25.90;28.40
1614;DHT22;800;48.824;9.346;2023-05-18T12:51:38;25.90;29.20
1614;DHT22;800;48.824;9.346;2023-05-18T12:54:05;25.80;28.50
1614;DHT22;800;48.824;9.346;2023-05-18T12:56:53;25.70;28.50
1614;DHT22;800;48.824;9.346;2023-05-18T12:59:26;25.70;28.00
1614;DHT22;800;48.824;9.346;2023-05-18T13:01:53;25.50;28.90
1614;DHT22;800;48.824;9.346;2023-05-18T13:04:19;25.40;29.60
1614;DHT22;800;48.824;9.346;2023-05-18T13:06:45;25.60;29.20
1614;DHT22;800;48.824;9.346;2023-05-18T13:09:13;25.30;28.00
1614;DHT22;800;48.824;9.346;2023-05-18T13:11:40;25.20;28.80
1614;DHT22;800;48.824;9.346;2023-05-18T13:14:10;25.30;28.80
1614;DHT22;800;48.824;9.346;2023-05-18T13:16:44;25.70;28.50
1614;DHT22;800;48.824;9.346;2023-05-18T13:19:10;25.90;28.20
1614;DHT22;800;48.824;9.346;2023-05-18T13:21:40;25.90;28.30
1614;DHT22;800;48.824;9.346;2023-05-18T13:24:06;25.90;28.70
1614;DHT22;800;48.824;9.346;2023-05-18T13:26:31;26.00;28.90
1614;DHT22;800;48.824;9.346;2023-05-18T13:28:57;25.60;27.80
1614;DHT22;800;48.824;9.346;2023-05-18T13:31:23;25.70;28.20
1614;DHT22;800;48.824;9.346;2023-05-18T13:33:49;25.50;27.10
1614;DHT22;800;48.824;9.346;2023-05-18T13:36:16;25.40;27.40
1614;DHT22;800;48.824;9.346;2023-05-18T13:38:42;25.30;27.40
1614;DHT22;800;48.824;9.346;2023-05-18T13:41:09;25.50;27.30
1614;DHT22;800;48.824;9.346;2023-05-18T13:43:36;25.70;28.10
1614;DHT22;800;48.824;9.346;2023-05-18T13:46:03;25.50;28.00
1614;DHT22;800;48.824;9.346;2023-05-18T13:48:29;25.40;27.70
1614;DHT22;800;48.824;9.346;2023-05-18T13:50:55;25.50;27.90
1614;DHT22;800;48.824;9.346;2023-05-18T13:53:21;25.70;28.40
1614;DHT22;800;48.824;9.346;2023-05-18T13:55:46;25.40;27.60
1614;DHT22;800;48.824;9.346;2023-05-18T13:58:12;25.00;28.50
1614;DHT22;800;48.824;9.346;2023-05-18T14:00:38;24.80;28.70
1614;DHT22;800;48.824;9.346;2023-05-18T14:03:04;25.00;28.40
1614;DHT22;800;48.824;9.346;2023-05-18T14:05:30;25.30;30.00
1614;DHT22;800;48.824;9.346;2023-05-18T14:07:56;25.40;30.00
1614;DHT22;800;48.824;9.346;2023-05-18T14:10:21;25.70;29.10
1614;DHT22;800;48.824;9.346;2023-05-18T14:12:47;25.70;28.10
1614;DHT22;800;48.824;9.346;2023-05-18T14:15:13;25.50;28.30
1614;DHT22;800;48.824;9.346;2023-05-18T14:17:39;25.40;28.90
1614;DHT22;800;48.824;9.346;2023-05-18T14:20:06;25.50;27.90
1614;DHT22;800;48.824;9.346;2023-05-18T14:22:32;25.60;28.70
1614;DHT22;800;48.824;9.346;2023-05-18T14:24:58;25.80;28.10
1614;DHT22;800;48.824;9.346;2023-05-18T14:27:23;25.40;27.80
1614;DHT22;800;48.824;9.346;2023-05-18T14:29:49;25.20;28.40
1614;DHT22;800;48.824;9.346;2023-05-18T14:32:15;24.90;29.20
1614;DHT22;800;48.824;9.346;2023-05-18T14:34:41;25.10;28.20
1614;DHT22;800;48.824;9.346;2023-05-18T14:37:07;25.10;28.60
1614;DHT22;800;48.824;9.346;2023-05-18T14:39:32;25.50;28.20
1614;DHT22;800;48.824;9.346;2023-05-18T14:41:58;25.70;27.90
1614;DHT22;800;48.824;9.346;2023-05-18T14:44:24;25.30;27.70
1614;DHT22;800;48.824;9.346;2023-05-18T14:46:50;25.40;27.50
1614;DHT22;800;48.824;9.346;2023-05-18T14:49:16;25.40;27.90
1614;DHT22;800;48.824;9.346;2023-05-18T14:51:41;25.40;27.10
1614;DHT22;800;48.824;9.346;2023-05-18T14:54:07;25.60;28.20
1614;DHT22;800;48.824;9.346;2023-05-18T14:56:33;25.70;28.40
1614;DHT22;800;48.824;9.346;2023-05-18T14:58:58;25.60;27.40
1614;DHT22;800;48.824;9.346;2023-05-18T15:01:24;25.40;28.40
1614;DHT22;800;48.824;9.346;2023-05-18T15:03:49;25.40;27.60
1614;DHT22;800;48.824;9.346;2023-05-18T15:06:15;25.40;27.60
1614;DHT22;800;48.824;9.346;2023-05-18T15:08:41;25.30;27.70
1614;DHT22;800;48.824;9.346;2023-05-18T15:11:06;25.50;27.80
1614;DHT22;800;48.824;9.346;2023-05-18T15:13:32;25.70;27.60
1614;DHT22;800;48.824;9.346;2023-05-18T15:15:57;25.40;27.70
1614;DHT22;800;48.824;9.346;2023-05-18T15:18:23;25.20;27.70
1614;DHT22;800;48.824;9.346;2023-05-18T15:20:49;24.90;28.40
1614;DHT22;800;48.824;9.346;2023-05-18T15:23:14;24.80;28.60
1614;DHT22;800;48.824;9.346;2023-05-18T15:25:40;24.90;28.70
1614;DHT22;800;48.824;9.346;2023-05-18T15:28:06;25.00;28.80
1614;DHT22;800;48.824;9.346;2023-05-18T15:30:33;25.00;27.90
1614;DHT22;800;48.824;9.346;2023-05-18T15:32:59;25.10;29.20
1614;DHT22;800;48.824;9.346;2023-05-18T15:35:27;25.20;29.60
1614;DHT22;800;48.824;9.346;2023-05-18T15:37:53;25.00;28.80
1614;DHT22;800;48.824;9.346;2023-05-18T15:40:18;25.20;29.00
1614;DHT22;800;48.824;9.346;2023-05-18T15:42:44;25.10;29.00
1614;DHT22;800;48.824;9.346;2023-05-18T15:45:10;24.80;29.20
1614;DHT22;800;48.824;9.346;2023-05-18T15:47:36;24.10;29.60
1614;DHT22;800;48.824;9.346;2023-05-18T15:50:01;23.50;30.30
1614;DHT22;800;48.824;9.346;2023-05-18T15:52:27;23.20;30.80
1614;DHT22;800;48.824;9.346;2023-05-18T15:54:53;23.20;31.10
1614;DHT22;800;48.824;9.346;2023-05-18T15:57:18;23.40;30.90
1614;DHT22;800;48.824;9.346;2023-05-18T15:59:44;23.40;30.50
1614;DHT22;800;48.824;9.346;2023-05-18T16:02:10;23.30;30.20
1614;DHT22;800;48.824;9.346;2023-05-18T16:04:35;23.30;30.00
1614;DHT22;800;48.824;9.346;2023-05-18T16:07:01;23.30;30.20
1614;DHT22;800;48.824;9.346;2023-05-18T16:09:29;23.30;30.20
1614;DHT22;800;48.824;9.346;2023-05-18T16:11:54;23.40;30.10
1614;DHT22;800;48.824;9.346;2023-05-18T16:14:20;23.50;30.10
1614;DHT22;800;48.824;9.346;2023-05-18T16:16:46;23.50;29.90
1614;DHT22;800;48.824;9.346;2023-05-18T16:19:11;23.60;30.00
1614;DHT22;800;48.824;9.346;2023-05-18T16:21:37;23.60;30.00
1614;DHT22;800;48.824;9.346;2023-05-18T16:24:04;23.70;30.20
1614;DHT22;800;48.824;9.346;2023-05-18T16:26:32;23.80;30.40
1614;DHT22;800;48.824;9.346;2023-05-18T16:28:58;23.80;29.70
1614;DHT22;800;48.824;9.346;2023-05-18T16:31:23;23.90;30.00